Time;durP1;ratioP1;P1;durP2;ratioP2;P2;SDS_P1;SDS_P2;PMS_P1;PMS_P2;Temp;Humidity;BMP_temperature;BMP_pressure;BME280_temperature;BME280_humidity;BME280_pressure;Samples;Min_cycle;Max_cycle;Signal;HPM_P1;HPM_P2
2022/05/06 00:01:34;;;;;;;;;;;;;;;2.58;78.83;100429.12;1676419;84;21114;-81
2022/05/06 00:04:02;;;;;;;;;;;;;;;2.55;79.20;100430.97;1690258;84;20482;-81
2022/05/06 00:06:29;;;;;;;;;;;;;;;2.55;79.33;100425.55;1683937;84;20144;-81
2022/05/06 00:08:56;;;;;;;;;;;;;;;2.54;79.40;100425.25;1688443;85;20152;-82
2022/05/06 00:11:24;;;;;;;;;;;;;;;2.54;79.50;100425.25;1680917;83;20097;-81
2022/05/06 00:13:53;;;;;;;;;;;;;;;2.55;79.43;100424.72;1679406;84;21726;-81
2022/05/06 00:16:20;;;;;;;;;;;;;;;2.52;79.33;100420.61;1688261;83;20076;-81
2022/05/06 00:18:47;;;;;;;;;;;;;;;2.50;79.35;100422.73;1688451;84;20116;-79
2022/05/06 00:21:13;;;;;;;;;;;;;;;2.49;79.28;100424.33;1690506;84;20607;-78
2022/05/06 00:23:40;;;;;;;;;;;;;;;2.48;79.43;100425.39;1683379;84;20115;-80
2022/05/06 00:26:07;;;;;;;;;;;;;;;2.47;79.45;100428.64;1687741;83;21118;-79
2022/05/06 00:28:33;;;;;;;;;;;;;;;2.46;79.40;100422.93;1687508;84;20096;-79
2022/05/06 00:31:03;;;;;;;;;;;;;;;2.46;79.42;100416.16;1682480;84;20139;-84
2022/05/06 00:33:29;;;;;;;;;;;;;;;2.46;79.21;100419.39;1688882;84;20642;-85
2022/05/06 00:35:58;;;;;;;;;;;;;;;2.45;79.25;100419.92;1691466;84;20104;-86
2022/05/06 00:38:25;;;;;;;;;;;;;;;2.46;79.30;100431.06;1689238;84;21289;-81
2022/05/06 00:40:52;;;;;;;;;;;;;;;2.47;79.39;100425.93;1684332;83;20452;-80
2022/05/06 00:43:19;;;;;;;;;;;;;;;2.48;79.30;100429.47;1684921;84;20099;-81
2022/05/06 00:45:52;;;;;;;;;;;;;;;2.48;79.41;100429.47;1687720;84;20427;-77
2022/05/06 00:48:22;;;;;;;;;;;;;;;2.50;79.40;100432.22;1690734;84;20103;-77
2022/05/06 00:50:48;;;;;;;;;;;;;;;2.51;79.24;100431.16;1686808;84;21178;-78
2022/05/06 00:53:14;;;;;;;;;;;;;;;2.50;79.05;100430.87;1684966;84;20115;-77
2022/05/06 00:55:42;;;;;;;;;;;;;;;2.52;78.91;100430.63;1662187;85;20128;-77
2022/05/06 00:58:09;;;;;;;;;;;;;;;2.49;78.80;100427.87;1681515;84;20141;-78
2022/05/06 01:00:36;;;;;;;;;;;;;;;2.48;78.69;100428.11;1689871;84;20450;-77
2022/05/06 01:03:02;;;;;;;;;;;;;;;2.46;78.72;100428.34;1686138;84;21414;-80
2022/05/06 01:05:30;;;;;;;;;;;;;;;2.44;78.72;100431.83;1682890;84;20089;-79
2022/05/06 01:08:02;;;;;;;;;;;;;;;2.40;78.74;100427.95;1649566;86;20154;-78
2022/05/06 01:10:26;;;;;;;;;;;;;;;2.37;78.66;100425.73;1666790;85;20684;-78
2022/05/06 01:12:53;;;;;;;;;;;;;;;2.36;78.87;100431.38;1674827;85;20092;-86
2022/05/06 01:15:24;;;;;;;;;;;;;;;2.32;78.98;100422.38;1631541;87;21602;-84
2022/05/06 01:17:53;;;;;;;;;;;;;;;2.29;79.09;100424.78;1623296;87;20103;-85
2022/05/06 01:20:20;;;;;;;;;;;;;;;2.24;79.35;100429.56;1649756;86;20101;-85
2022/05/06 01:22:51;;;;;;;;;;;;;;;2.23;79.61;100428.45;1652686;85;20624;-86
2022/05/06 01:25:18;;;;;;;;;;;;;;;2.19;79.78;100428.09;1645069;86;20117;-86
2022/05/06 01:27:48;;;;;;;;;;;;;;;2.16;79.79;100434.52;1643058;86;22159;-86
2022/05/06 01:30:24;;;;;;;;;;;;;;;2.13;79.81;100437.18;1655798;86;20126;-86
2022/05/06 01:32:50;;;;;;;;;;;;;;;2.09;79.86;100438.72;1644837;86;20090;-86
2022/05/06 01:35:19;;;;;;;;;;;;;;;2.07;80.21;100435.42;1645936;86;20089;-78
2022/05/06 01:37:46;;;;;;;;;;;;;;;2.04;80.29;100434.55;1646918;86;20221;-77
2022/05/06 01:40:14;;;;;;;;;;;;;;;2.01;80.18;100434.20;1618414;86;41361;-80
2022/05/06 01:42:41;;;;;;;;;;;;;;;1.97;80.17;100431.14;1632126;85;20468;-81
2022/05/06 01:45:10;;;;;;;;;;;;;;;1.93;80.23;100433.50;1653511;84;20090;-80
2022/05/06 01:47:38;;;;;;;;;;;;;;;1.92;80.37;100431.85;1650712;86;20090;-81
2022/05/06 01:50:10;;;;;;;;;;;;;;;1.89;80.46;100434.20;1641108;86;20445;-80
2022/05/06 01:52:37;;;;;;;;;;;;;;;1.87;80.69;100434.45;1648466;84;21843;-79
2022/05/06 01:55:06;;;;;;;;;;;;;;;1.84;80.83;100436.27;1649501;86;20166;-78
2022/05/06 01:57:35;;;;;;;;;;;;;;;1.82;80.83;100434.33;1656350;85;20156;-79
2022/05/06 02:00:02;;;;;;;;;;;;;;;1.79;80.98;100438.86;1664643;86;20101;-80
2022/05/06 02:02:29;;;;;;;;;;;;;;;1.75;81.11;100434.98;1649683;85;20122;-80
2022/05/06 02:07:45;;;;;;;;;;;;;;;1.69;81.22;100433.78;1645345;84;20473;-80
2022/05/06 02:10:12;;;;;;;;;;;;;;;1.65;81.42;100439.66;1658684;84;20129;-80
2022/05/06 02:12:41;;;;;;;;;;;;;;;1.62;81.62;100437.95;1652537;85;20106;-80
2022/05/06 02:15:10;;;;;;;;;;;;;;;1.59;81.72;100440.60;1649825;86;20121;-80
2022/05/06 02:17:39;;;;;;;;;;;;;;;1.58;81.86;100444.89;1639313;86;21192;-76
2022/05/06 02:20:11;;;;;;;;;;;;;;;1.57;82.03;100445.95;1655022;86;20420;-76
2022/05/06 02:22:44;;;;;;;;;;;;;;;1.54;82.01;100441.83;1649838;85;20169;-76
2022/05/06 02:25:30;;;;;;;;;;;;;;;1.53;82.07;100444.77;1652173;86;20643;-80
2022/05/06 02:28:07;;;;;;;;;;;;;;;1.50;82.07;100445.24;1652800;85;20166;-80
2022/05/06 02:33:24;;;;;;;;;;;;;;;1.46;82.39;100453.00;1619116;87;20156;-82
2022/05/06 02:35:57;;;;;;;;;;;;;;;1.44;82.67;100458.36;1628306;86;20459;-74
2022/05/06 02:38:28;;;;;;;;;;;;;;;1.43;82.77;100462.11;1668827;85;20115;-74
2022/05/06 02:40:56;;;;;;;;;;;;;;;1.43;83.11;100462.11;1670860;85;20179;-74
2022/05/06 02:43:23;;;;;;;;;;;;;;;1.43;83.40;100462.11;1648204;85;21566;-74
2022/05/06 02:45:52;;;;;;;;;;;;;;;1.45;83.65;100466.23;1673876;85;20081;-73
2022/05/06 02:48:19;;;;;;;;;;;;;;;1.47;83.69;100460.59;1669324;85;20462;-73
2022/05/06 02:50:47;;;;;;;;;;;;;;;1.46;83.67;100457.06;1672649;85;20120;-73
2022/05/06 02:53:14;;;;;;;;;;;;;;;1.47;83.82;100461.42;1668781;85;20107;-74
2022/05/06 02:55:41;;;;;;;;;;;;;;;1.50;83.98;100460.13;1669797;85;21728;-73
2022/05/06 02:58:09;;;;;;;;;;;;;;;1.51;84.13;100469.36;1668496;85;20087;-74
2022/05/06 03:00:36;;;;;;;;;;;;;;;1.52;84.24;100460.72;1668394;84;20143;-73
2022/05/06 03:03:04;;;;;;;;;;;;;;;1.54;84.15;100465.36;1681376;85;20665;-73
2022/05/06 03:05:32;;;;;;;;;;;;;;;1.55;84.27;100467.84;1678752;85;20184;-73
2022/05/06 03:07:59;;;;;;;;;;;;;;;1.58;84.38;100471.43;1679244;84;21099;-73
2022/05/06 03:10:28;;;;;;;;;;;;;;;1.63;84.53;100470.20;1619566;87;20203;-73
2022/05/06 03:12:58;;;;;;;;;;;;;;;1.69;84.51;100477.09;1672289;84;20154;-75
2022/05/06 03:15:25;;;;;;;;;;;;;;;1.74;84.64;100478.53;1668966;85;20479;-74
2022/05/06 03:17:57;;;;;;;;;;;;;;;1.79;84.65;100477.30;1666979;85;20169;-74
2022/05/06 03:20:24;;;;;;;;;;;;;;;1.85;84.74;100481.24;1668397;85;21078;-75
2022/05/06 03:22:52;;;;;;;;;;;;;;;1.92;85.28;100486.54;1667682;85;20100;-72
2022/05/06 03:25:20;;;;;;;;;;;;;;;2.00;85.35;100482.13;1665332;85;20252;-74
2022/05/06 03:30:37;;;;;;;;;;;;;;;2.18;86.11;100476.56;1673329;85;20103;-71
2022/05/06 03:33:08;;;;;;;;;;;;;;;2.33;85.98;100478.22;1666311;85;21268;-72
2022/05/06 03:35:37;;;;;;;;;;;;;;;2.48;84.93;100479.07;1668694;85;20202;-72
2022/05/06 03:38:05;;;;;;;;;;;;;;;2.69;83.69;100478.13;1668583;85;20088;-73
2022/05/06 03:40:33;;;;;;;;;;;;;;;2.97;80.52;100484.89;1668372;85;20598;-72
2022/05/06 03:43:01;;;;;;;;;;;;;;;3.25;78.78;100490.30;1670015;85;20088;-72
2022/05/06 03:45:28;;;;;;;;;;;;;;;3.56;75.16;100490.78;1667678;85;21789;-71
2022/05/06 03:47:58;;;;;;;;;;;;;;;3.87;72.20;100485.30;1667103;85;20469;-73
2022/05/06 03:53:13;;;;;;;;;;;;;;;4.39;69.45;100492.55;1638046;84;20188;-73
2022/05/06 03:55:42;;;;;;;;;;;;;;;4.62;67.96;100497.70;1650239;85;20151;-71
2022/05/06 03:58:09;;;;;;;;;;;;;;;4.83;66.45;100495.23;1633037;87;21173;-73
2022/05/06 04:00:36;;;;;;;;;;;;;;;5.01;66.18;100499.52;1640376;85;20476;-73
2022/05/06 04:03:04;;;;;;;;;;;;;;;5.14;64.54;100498.57;1610311;87;20155;-74
2022/05/06 04:05:32;;;;;;;;;;;;;;;5.27;62.77;100498.67;1623422;87;20275;-75
2022/05/06 04:08:01;;;;;;;;;;;;;;;5.42;62.18;100498.81;1627497;86;20161;-73
2022/05/06 04:10:29;;;;;;;;;;;;;;;5.59;61.24;100502.78;1641778;86;21116;-74
2022/05/06 04:12:57;;;;;;;;;;;;;;;5.73;61.46;100497.17;1635952;86;20097;-74
2022/05/06 04:15:24;;;;;;;;;;;;;;;5.86;61.30;100495.88;1624875;86;20433;-74
2022/05/06 04:17:51;;;;;;;;;;;;;;;5.97;60.73;100498.99;1608106;88;20127;-73
2022/05/06 04:25:51;;;;;;;;;;;;;;;6.38;59.72;100490.49;1655034;86;20149;-73
2022/05/06 04:28:19;;;;;;;;;;;;;;;6.54;60.04;100490.84;1615540;87;20177;-73
2022/05/06 04:30:47;;;;;;;;;;;;;;;6.69;58.99;100490.63;1654739;85;20078;-72
2022/05/06 04:33:15;;;;;;;;;;;;;;;6.84;58.52;100486.59;1624726;86;20151;-74
2022/05/06 04:35:46;;;;;;;;;;;;;;;7.01;56.55;100480.89;1645707;85;21204;-73
2022/05/06 04:38:13;;;;;;;;;;;;;;;7.16;55.87;100488.57;1625123;86;20105;-74
2022/05/06 04:40:42;;;;;;;;;;;;;;;7.32;55.76;100492.70;1653645;85;20141;-74
2022/05/06 04:43:09;;;;;;;;;;;;;;;7.45;55.30;100501.18;1673688;85;20107;-73
2022/05/06 04:45:38;;;;;;;;;;;;;;;7.59;54.95;100500.06;1664114;85;20467;-73
2022/05/06 04:48:11;;;;;;;;;;;;;;;7.76;53.68;100506.63;1662868;85;21103;-73
2022/05/06 04:50:41;;;;;;;;;;;;;;;7.90;53.49;100503.62;1670360;85;20447;-73
2022/05/06 04:53:09;;;;;;;;;;;;;;;8.03;53.65;100504.43;1670363;85;20125;-73
2022/05/06 04:55:38;;;;;;;;;;;;;;;8.18;52.53;100502.19;1664680;85;20144;-72
2022/05/06 04:58:06;;;;;;;;;;;;;;;8.33;51.40;100500.82;1672074;85;20131;-74
2022/05/06 05:00:33;;;;;;;;;;;;;;;8.48;51.99;100504.89;1664588;85;21136;-76
2022/05/06 05:03:00;;;;;;;;;;;;;;;8.63;50.92;100507.30;1665881;85;20131;-73
2022/05/06 05:05:27;;;;;;;;;;;;;;;8.75;50.85;100500.93;1634080;86;20423;-74
2022/05/06 05:07:54;;;;;;;;;;;;;;;8.88;51.32;100505.25;1653212;86;20151;-79
2022/05/06 05:10:22;;;;;;;;;;;;;;;9.04;50.59;100514.22;1654924;86;20164;-79
2022/05/06 05:12:49;;;;;;;;;;;;;;;9.18;49.58;100522.09;1664298;85;21823;-79
2022/05/06 05:15:16;;;;;;;;;;;;;;;9.33;49.63;100526.62;1625922;86;20331;-84
2022/05/06 05:17:45;;;;;;;;;;;;;;;9.46;49.43;100518.33;1664206;85;20104;-76
2022/05/06 05:20:14;;;;;;;;;;;;;;;9.60;48.06;100519.32;1655193;86;20435;-82
2022/05/06 05:22:42;;;;;;;;;;;;;;;9.73;48.29;100517.30;1656827;85;20459;-78
2022/05/06 05:25:11;;;;;;;;;;;;;;;9.87;48.54;100518.25;1653641;84;21165;-78
2022/05/06 05:27:38;;;;;;;;;;;;;;;10.05;49.36;100515.36;1654456;84;20121;-78
2022/05/06 05:30:06;;;;;;;;;;;;;;;10.22;48.15;100510.28;1655448;85;20135;-77
2022/05/06 05:32:33;;;;;;;;;;;;;;;10.38;46.92;100504.64;1674074;83;20449;-77
2022/05/06 05:35:01;;;;;;;;;;;;;;;10.55;48.56;100503.59;1640207;86;20457;-80
2022/05/06 05:37:29;;;;;;;;;;;;;;;10.72;44.89;100501.19;1642692;87;22023;-79
2022/05/06 05:39:57;;;;;;;;;;;;;;;10.87;45.46;100497.44;1614344;87;20442;-77
2022/05/06 05:42:24;;;;;;;;;;;;;;;11.02;43.70;100505.45;1626203;85;20232;-78
2022/05/06 05:50:23;;;;;;;;;;;;;;;11.40;43.02;100508.22;1640810;85;21223;-74
2022/05/06 05:52:50;;;;;;;;;;;;;;;11.49;42.89;100505.06;1638757;86;20153;-73
2022/05/06 05:55:18;;;;;;;;;;;;;;;11.61;41.34;100506.77;1641570;84;20158;-77
2022/05/06 05:57:46;;;;;;;;;;;;;;;11.70;41.87;100504.97;1668607;85;20120;-72
2022/05/06 06:00:14;;;;;;;;;;;;;;;11.81;41.80;100505.09;1638646;85;20102;-76
2022/05/06 06:02:44;;;;;;;;;;;;;;;11.93;42.56;100506.56;1623643;86;22201;-74
2022/05/06 06:05:12;;;;;;;;;;;;;;;12.10;41.20;100499.94;1674692;84;20474;-71
2022/05/06 06:07:41;;;;;;;;;;;;;;;12.26;41.13;100506.77;1663799;83;20126;-74
2022/05/06 06:10:08;;;;;;;;;;;;;;;12.38;40.14;100501.58;1631788;86;20102;-75
2022/05/06 06:12:39;;;;;;;;;;;;;;;12.47;37.92;100502.52;1628961;86;20498;-74
2022/05/06 06:15:07;;;;;;;;;;;;;;;12.54;38.27;100498.80;1606206;86;21795;-79
2022/05/06 06:17:34;;;;;;;;;;;;;;;12.60;37.71;100497.32;1630904;86;20429;-74
2022/05/06 06:20:02;;;;;;;;;;;;;;;12.70;36.76;100498.49;1599691;86;20152;-75
2022/05/06 06:22:31;;;;;;;;;;;;;;;12.78;38.29;100503.25;1630683;86;20164;-77
2022/05/06 06:24:59;;;;;;;;;;;;;;;12.88;37.82;100503.86;1605253;86;20148;-78
2022/05/06 06:27:28;;;;;;;;;;;;;;;12.99;36.95;100504.46;1624161;87;21096;-76
2022/05/06 06:29:55;;;;;;;;;;;;;;;13.08;35.42;100501.23;1634370;86;20417;-73
2022/05/06 06:32:21;;;;;;;;;;;;;;;13.17;35.32;100502.73;1624122;86;20147;-75
2022/05/06 06:34:51;;;;;;;;;;;;;;;13.27;32.99;100503.06;1593963;87;20152;-80
2022/05/06 06:37:19;;;;;;;;;;;;;;;13.33;32.80;100503.17;1598726;87;20118;-76
2022/05/06 06:39:48;;;;;;;;;;;;;;;13.38;33.63;100503.88;1626818;86;21976;-83
2022/05/06 06:42:16;;;;;;;;;;;;;;;13.47;32.60;100498.43;1602988;87;20148;-78
2022/05/06 06:44:59;;;;;;;;;;;;;;;13.52;32.00;100507.97;1628593;87;20433;-76
2022/05/06 06:47:39;;;;;;;;;;;;;;;13.54;32.53;100503.77;1603019;87;20154;-73
2022/05/06 06:50:08;;;;;;;;;;;;;;;13.65;33.87;100507.10;1643121;84;20455;-74
2022/05/06 06:52:43;;;;;;;;;;;;;;;13.84;31.62;100516.02;1648611;86;21257;-73
2022/05/06 06:55:09;;;;;;;;;;;;;;;13.92;32.55;100510.27;1667495;85;20089;-78
2022/05/06 06:57:37;;;;;;;;;;;;;;;14.01;32.29;100512.53;1664588;85;20148;-70
2022/05/06 07:00:06;;;;;;;;;;;;;;;14.14;31.13;100509.44;1668055;85;20615;-75
2022/05/06 07:02:33;;;;;;;;;;;;;;;14.26;33.27;100512.44;1663675;85;20442;-74
2022/05/06 07:05:00;;;;;;;;;;;;;;;14.42;31.44;100519.22;1664500;85;21152;-73
2022/05/06 07:12:59;;;;;;;;;;;;;;;14.59;29.55;100515.69;1638951;85;20155;-80
2022/05/06 07:15:32;;;;;;;;;;;;;;;14.59;30.30;100519.02;1660967;85;20144;-80
2022/05/06 07:18:01;;;;;;;;;;;;;;;14.67;29.75;100515.47;1665723;85;21132;-80
2022/05/06 07:20:39;;;;;;;;;;;;;;;14.76;29.97;100514.94;1640790;85;20091;-81
2022/05/06 07:23:08;;;;;;;;;;;;;;;14.90;29.58;100512.06;1643511;85;20096;-79
2022/05/06 07:25:36;;;;;;;;;;;;;;;14.92;29.46;100514.75;1645232;86;20169;-81
2022/05/06 07:28:07;;;;;;;;;;;;;;;15.00;30.22;100518.11;1655032;84;20078;-79
2022/05/06 07:30:38;;;;;;;;;;;;;;;15.12;31.13;100512.73;1626392;87;20618;-82
2022/05/06 07:33:08;;;;;;;;;;;;;;;15.22;29.87;100506.08;1635180;86;20161;-83
2022/05/06 07:35:34;;;;;;;;;;;;;;;15.29;30.78;100510.56;1646957;84;20161;-83
2022/05/06 07:38:06;;;;;;;;;;;;;;;15.35;29.84;100512.04;1623132;86;20109;-79
2022/05/06 07:40:35;;;;;;;;;;;;;;;15.38;28.66;100504.47;1655784;85;20435;-78
2022/05/06 07:43:01;;;;;;;;;;;;;;;15.47;30.96;100509.45;1640358;85;21116;-76
2022/05/06 07:45:28;;;;;;;;;;;;;;;15.67;32.84;100502.45;1637603;85;20182;-74
2022/05/06 07:47:54;;;;;;;;;;;;;;;15.93;31.53;100500.23;1634478;85;20140;-73
2022/05/06 07:50:26;;;;;;;;;;;;;;;16.12;30.61;100506.22;1611130;88;20435;-78
2022/05/06 07:53:03;;;;;;;;;;;;;;;16.18;27.86;100506.25;1604603;88;20169;-82
2022/05/06 07:55:35;;;;;;;;;;;;;;;16.19;27.27;100505.11;1640837;87;21204;-79
2022/05/06 07:58:12;;;;;;;;;;;;;;;16.24;27.51;100511.86;1610904;85;20503;-80
2022/05/06 08:00:43;;;;;;;;;;;;;;;16.41;26.68;100509.05;1633828;88;20084;-83
2022/05/06 08:06:05;;;;;;;;;;;;;;;16.87;27.92;100508.77;1634514;85;20128;-75
2022/05/06 08:08:31;;;;;;;;;;;;;;;17.19;29.80;100500.91;1633259;88;22310;-72
2022/05/06 08:10:57;;;;;;;;;;;;;;;17.60;27.76;100492.57;1633765;85;20431;-79
2022/05/06 08:13:26;;;;;;;;;;;;;;;17.90;25.84;100496.66;1633883;85;20128;-78
2022/05/06 08:15:57;;;;;;;;;;;;;;;18.03;26.68;100496.34;1608592;87;20101;-78
2022/05/06 08:18:29;;;;;;;;;;;;;;;18.16;26.07;100499.97;1634017;88;20131;-75
2022/05/06 08:21:04;;;;;;;;;;;;;;;18.42;24.87;100503.27;1627241;86;20120;-77
2022/05/06 08:23:27;;;;;;;;;;;;;;;18.66;25.06;100501.67;1632847;85;20104;-76
2022/05/06 08:25:54;;;;;;;;;;;;;;;18.91;24.79;100499.13;1633788;86;20281;-80
2022/05/06 08:28:29;;;;;;;;;;;;;;;19.13;23.76;100495.02;1621404;86;20151;-78
2022/05/06 08:30:57;;;;;;;;;;;;;;;19.20;24.00;100493.86;1634335;86;20219;-85
2022/05/06 08:33:32;;;;;;;;;;;;;;;19.37;24.76;100496.95;1634948;85;21711;-81
2022/05/06 08:36:00;;;;;;;;;;;;;;;19.54;25.11;100491.14;1634759;86;20143;-78
2022/05/06 08:38:28;;;;;;;;;;;;;;;19.61;23.81;100483.58;1633725;86;20419;-75
2022/05/06 08:40:57;;;;;;;;;;;;;;;19.70;23.04;100475.85;1634504;87;20096;-80
2022/05/06 08:43:24;;;;;;;;;;;;;;;19.67;22.89;100479.34;1633546;86;20135;-77
2022/05/06 08:51:26;;;;;;;;;;;;;;;19.51;22.97;100470.95;1634214;86;20463;-72
2022/05/06 08:53:55;;;;;;;;;;;;;;;19.58;24.27;100473.14;1634283;88;20124;-74
2022/05/06 08:56:22;;;;;;;;;;;;;;;19.84;24.36;100472.66;1634146;88;20169;-83
2022/05/06 08:58:54;;;;;;;;;;;;;;;20.19;25.11;100475.03;1633836;87;21186;-84
2022/05/06 09:01:24;;;;;;;;;;;;;;;20.37;21.16;100475.47;1634963;86;20104;-83
2022/05/06 09:03:50;;;;;;;;;;;;;;;20.29;22.10;100466.69;1634206;88;20117;-81
2022/05/06 09:06:20;;;;;;;;;;;;;;;20.16;22.62;100469.36;1631407;87;20207;-77
2022/05/06 09:08:48;;;;;;;;;;;;;;;20.12;22.03;100466.47;1619505;88;20129;-75
2022/05/06 09:11:16;;;;;;;;;;;;;;;20.24;21.82;100466.37;1620531;87;21625;-79
2022/05/06 09:13:58;;;;;;;;;;;;;;;20.35;21.79;100464.67;1618654;87;20115;-79
2022/05/06 09:16:41;;;;;;;;;;;;;;;20.39;22.86;100450.85;1658484;84;20163;-79
2022/05/06 09:19:15;;;;;;;;;;;;;;;20.57;22.37;100449.32;1633036;85;20753;-88
2022/05/06 09:22:01;;;;;;;;;;;;;;;20.55;21.76;100441.09;1623794;85;20100;-72
2022/05/06 09:24:30;;;;;;;;;;;;;;;20.41;21.36;100435.38;1638241;85;21175;-70
2022/05/06 09:27:12;;;;;;;;;;;;;;;20.24;23.37;100444.06;1638788;85;20140;-73
2022/05/06 09:29:49;;;;;;;;;;;;;;;20.19;22.24;100442.16;1633060;85;20415;-75
2022/05/06 09:32:28;;;;;;;;;;;;;;;20.05;21.63;100441.20;1641379;85;20112;-76
2022/05/06 09:35:18;;;;;;;;;;;;;;;20.00;22.47;100438.67;1635362;85;20186;-80
2022/05/06 09:37:50;;;;;;;;;;;;;;;20.13;23.33;100433.83;1635306;85;20883;-81
2022/05/06 09:40:18;;;;;;;;;;;;;;;20.63;22.67;100442.88;1648018;85;20174;-81
2022/05/06 09:42:59;;;;;;;;;;;;;;;21.13;21.25;100430.87;1627740;86;20225;-77
2022/05/06 09:45:42;;;;;;;;;;;;;;;21.38;20.97;100432.80;1620698;86;20108;-78
2022/05/06 09:48:12;;;;;;;;;;;;;;;21.44;21.97;100428.54;1633552;85;20172;-76
2022/05/06 09:50:46;;;;;;;;;;;;;;;21.20;20.23;100441.38;1624766;85;21235;-76
2022/05/06 09:53:22;;;;;;;;;;;;;;;21.01;20.93;100439.36;1616489;84;20181;-78
2022/05/06 09:55:50;;;;;;;;;;;;;;;21.19;20.95;100432.20;1639782;85;20152;-73
2022/05/06 09:58:19;;;;;;;;;;;;;;;21.21;20.70;100436.02;1695074;82;20272;-75
2022/05/06 10:00:50;;;;;;;;;;;;;;;21.06;21.50;100441.28;1674494;84;20130;-79
2022/05/06 10:03:18;;;;;;;;;;;;;;;20.90;20.68;100441.91;1657159;83;20159;-77
2022/05/06 10:05:49;;;;;;;;;;;;;;;20.71;22.31;100446.06;1643625;84;20238;-76
2022/05/06 10:08:23;;;;;;;;;;;;;;;20.60;20.83;100439.42;1638031;84;20185;-73
2022/05/06 10:10:58;;;;;;;;;;;;;;;20.72;22.34;100436.53;1640003;84;20102;-79
2022/05/06 10:13:29;;;;;;;;;;;;;;;20.89;20.54;100440.30;1630144;85;20146;-79
2022/05/06 10:15:55;;;;;;;;;;;;;;;20.90;21.38;100429.35;1639648;84;21137;-75
2022/05/06 10:18:34;;;;;;;;;;;;;;;20.92;20.37;100430.38;1646695;85;20085;-74
2022/05/06 10:21:06;;;;;;;;;;;;;;;20.95;20.22;100423.48;1648414;85;20082;-76
2022/05/06 10:23:47;;;;;;;;;;;;;;;21.07;21.28;100433.72;1630862;86;20173;-75
2022/05/06 10:26:45;;;;;;;;;;;;;;;21.26;22.88;100415.63;1647289;84;20177;-74
2022/05/06 10:32:25;;;;;;;;;;;;;;;21.65;21.27;100422.58;1644020;85;20219;-75
2022/05/06 10:35:05;;;;;;;;;;;;;;;21.59;23.07;100419.86;1633715;86;20429;-75
2022/05/06 10:37:40;;;;;;;;;;;;;;;21.73;22.17;100417.35;1634454;86;20154;-73
2022/05/06 10:40:30;;;;;;;;;;;;;;;21.83;21.16;100418.15;1649465;84;20445;-75
2022/05/06 10:42:57;;;;;;;;;;;;;;;21.73;22.00;100413.16;1641587;86;21546;-76
2022/05/06 10:45:30;;;;;;;;;;;;;;;21.56;21.24;100407.44;1633686;85;20098;-76
2022/05/06 10:48:04;;;;;;;;;;;;;;;21.45;22.15;100406.41;1634765;85;20099;-77
2022/05/06 10:50:39;;;;;;;;;;;;;;;21.60;22.16;100411.11;1667673;85;20558;-77
2022/05/06 10:53:09;;;;;;;;;;;;;;;21.71;20.97;100419.12;1684129;84;20120;-75
2022/05/06 10:55:37;;;;;;;;;;;;;;;21.68;19.73;100404.48;1625951;85;21775;-72
2022/05/06 10:58:08;;;;;;;;;;;;;;;21.75;21.43;100399.63;1669685;84;20124;-77
2022/05/06 11:00:39;;;;;;;;;;;;;;;21.86;19.88;100395.64;1643642;85;20145;-76
2022/05/06 11:03:06;;;;;;;;;;;;;;;22.04;20.11;100389.78;1673052;85;20103;-73
2022/05/06 11:05:33;;;;;;;;;;;;;;;22.07;19.37;100389.84;1663886;85;20494;-75
2022/05/06 11:08:07;;;;;;;;;;;;;;;21.86;19.26;100392.84;1675765;84;21212;-76
2022/05/06 11:10:45;;;;;;;;;;;;;;;21.58;20.39;100389.72;1640714;85;20111;-74
2022/05/06 11:13:03;;;;;;;;;;;;;;;21.55;20.38;100385.46;1669233;84;20148;-75
2022/05/06 11:15:31;;;;;;;;;;;;;;;21.51;20.42;100381.78;1664991;85;20664;-76
2022/05/06 11:18:04;;;;;;;;;;;;;;;21.46;20.31;100380.69;1671854;85;20447;-76
2022/05/06 11:20:44;;;;;;;;;;;;;;;21.46;20.40;100382.89;1692808;82;21138;-77
2022/05/06 11:23:18;;;;;;;;;;;;;;;21.40;19.49;100369.00;1689672;83;20118;-73
2022/05/06 11:25:47;;;;;;;;;;;;;;;21.19;20.21;100376.94;1709047;84;20122;-72
2022/05/06 11:28:21;;;;;;;;;;;;;;;21.16;20.43;100370.11;1664524;84;20173;-73
2022/05/06 11:30:49;;;;;;;;;;;;;;;21.25;20.64;100377.71;1649338;83;20106;-74
2022/05/06 11:33:24;;;;;;;;;;;;;;;21.33;21.98;100373.08;1673587;84;21264;-75
2022/05/06 11:35:53;;;;;;;;;;;;;;;21.36;21.10;100367.56;1695861;83;20146;-73
2022/05/06 11:38:42;;;;;;;;;;;;;;;21.27;20.94;100361.98;1723580;81;20586;-72
2022/05/06 11:41:11;;;;;;;;;;;;;;;20.97;20.45;100370.09;1693438;83;20576;-76
2022/05/06 11:43:48;;;;;;;;;;;;;;;20.73;20.67;100371.98;1689410;82;20200;-73
2022/05/06 11:49:03;;;;;;;;;;;;;;;20.25;21.85;100364.02;1684968;83;20145;-79
2022/05/06 11:51:42;;;;;;;;;;;;;;;20.29;20.88;100358.77;1662332;84;20135;-72
2022/05/06 11:54:17;;;;;;;;;;;;;;;20.62;21.07;100358.38;1661390;84;20193;-70
2022/05/06 11:56:48;;;;;;;;;;;;;;;21.05;20.83;100350.93;1677984;85;20489;-73
2022/05/06 11:59:14;;;;;;;;;;;;;;;21.46;20.27;100343.79;1659816;83;21409;-74
2022/05/06 12:01:44;;;;;;;;;;;;;;;21.71;20.40;100343.67;1660862;85;20132;-76
2022/05/06 12:04:14;;;;;;;;;;;;;;;21.93;19.07;100349.65;1661091;84;20550;-77
2022/05/06 12:06:50;;;;;;;;;;;;;;;22.04;19.99;100335.27;1688645;83;20142;-77
2022/05/06 12:09:28;;;;;;;;;;;;;;;22.31;20.13;100327.71;1662707;84;20090;-75
2022/05/06 12:12:04;;;;;;;;;;;;;;;22.33;19.36;100328.14;1686566;83;22263;-78
2022/05/06 12:14:36;;;;;;;;;;;;;;;22.10;19.94;100328.17;1631648;85;20458;-76
2022/05/06 12:17:20;;;;;;;;;;;;;;;22.16;19.85;100325.28;1690563;83;20420;-76
2022/05/06 12:19:49;;;;;;;;;;;;;;;22.42;19.46;100325.08;1675749;85;20149;-79
2022/05/06 12:22:23;;;;;;;;;;;;;;;22.64;19.31;100320.80;1689523;83;20080;-74
2022/05/06 12:24:52;;;;;;;;;;;;;;;22.97;18.87;100318.67;1690238;83;21132;-73
2022/05/06 12:27:31;;;;;;;;;;;;;;;23.23;18.38;100316.95;1687541;83;20231;-74
2022/05/06 12:30:03;;;;;;;;;;;;;;;23.37;18.84;100318.52;1686692;83;20122;-79
2022/05/06 12:32:34;;;;;;;;;;;;;;;23.69;18.22;100309.05;1677116;83;20635;-75
2022/05/06 12:35:14;;;;;;;;;;;;;;;23.97;19.25;100308.50;1676270;82;20083;-73
2022/05/06 12:37:54;;;;;;;;;;;;;;;24.16;18.09;100301.25;1650340;84;21001;-81
2022/05/06 12:40:35;;;;;;;;;;;;;;;24.13;17.88;100291.41;1642368;86;20320;-82
2022/05/06 12:43:12;;;;;;;;;;;;;;;24.09;18.03;100296.18;1611318;85;20174;-80
2022/05/06 12:45:42;;;;;;;;;;;;;;;24.07;17.30;100295.77;1633659;85;20185;-79
2022/05/06 12:51:00;;;;;;;;;;;;;;;23.58;18.37;100290.75;1646401;85;21306;-77
2022/05/06 12:53:28;;;;;;;;;;;;;;;23.51;18.15;100289.25;1643717;84;20082;-80
2022/05/06 12:55:55;;;;;;;;;;;;;;;23.38;17.53;100290.12;1633658;85;20150;-80
2022/05/06 12:58:27;;;;;;;;;;;;;;;23.28;17.75;100296.41;1640673;85;20161;-80
2022/05/06 13:01:04;;;;;;;;;;;;;;;23.40;19.03;100289.73;1653006;84;20440;-79
2022/05/06 13:03:30;;;;;;;;;;;;;;;23.66;18.92;100282.62;1657186;84;21136;-80
2022/05/06 13:06:00;;;;;;;;;;;;;;;23.72;17.75;100284.45;1656707;84;20459;-80
2022/05/06 13:08:30;;;;;;;;;;;;;;;23.69;17.36;100281.02;1633382;85;20183;-84
2022/05/06 13:11:00;;;;;;;;;;;;;;;23.33;17.30;100282.06;1641001;84;20202;-77
2022/05/06 13:13:34;;;;;;;;;;;;;;;23.08;17.99;100276.00;1629137;85;20245;-75
2022/05/06 13:16:03;;;;;;;;;;;;;;;23.10;18.45;100275.83;1635456;84;20915;-78
2022/05/06 13:18:31;;;;;;;;;;;;;;;22.89;18.56;100266.58;1633467;85;20253;-77
2022/05/06 13:20:59;;;;;;;;;;;;;;;22.69;19.12;100260.30;1658860;82;20116;-78
2022/05/06 13:23:31;;;;;;;;;;;;;;;22.46;18.29;100265.20;1694978;84;20120;-76
2022/05/06 13:26:00;;;;;;;;;;;;;;;22.29;19.11;100260.97;1685894;84;20127;-76
2022/05/06 13:28:28;;;;;;;;;;;;;;;22.47;18.76;100266.01;1681186;82;20720;-70
2022/05/06 13:30:56;;;;;;;;;;;;;;;22.83;18.24;100258.30;1655530;85;20118;-76
2022/05/06 13:33:32;;;;;;;;;;;;;;;23.25;17.81;100257.16;1629561;86;20155;-76
2022/05/06 13:35:58;;;;;;;;;;;;;;;23.50;17.16;100259.62;1639230;86;20164;-77
2022/05/06 13:38:28;;;;;;;;;;;;;;;23.42;16.87;100253.73;1637578;86;20162;-77
2022/05/06 13:40:56;;;;;;;;;;;;;;;23.18;16.86;100257.08;1633448;86;21693;-76